Time;durP1;ratioP1;P1;durP2;ratioP2;P2;SDS_P1;SDS_P2;PMS_P1;PMS_P2;Temp;Humidity;BMP_temperature;BMP_pressure;BME280_temperature;BME280_humidity;BME280_pressure;Samples;Min_cycle;Max_cycle;Signal;HPM_P1;HPM_P2
2023/09/01 00:00:13;;;;;;;;;2.00;0.33;;;;;21.73;100.00;100997.69;5074872;28;47952;-72
2023/09/01 00:02:39;;;;;;;;;1.00;1.00;;;;;21.76;100.00;100994.94;5075990;27;45366;-72
2023/09/01 00:05:05;;;;;;;;;1.00;1.00;;;;;21.76;100.00;100994.06;5076280;28;45398;-72
2023/09/01 00:07:31;;;;;;;;;1.00;0.67;;;;;21.77;100.00;100995.81;5075813;28;45670;-72
2023/09/01 00:09:56;;;;;;;;;1.67;0.67;;;;;21.75;100.00;100993.19;5076060;28;45693;-72
2023/09/01 00:12:21;;;;;;;;;0.67;0.67;;;;;21.74;100.00;100990.53;5075730;28;45394;-72
2023/09/01 00:14:47;;;;;;;;;0.67;0.67;;;;;21.73;100.00;100983.38;5075324;27;63680;-73
2023/09/01 00:17:13;;;;;;;;;1.00;1.00;;;;;21.73;100.00;100986.94;5075628;28;45353;-73
2023/09/01 00:19:39;;;;;;;;;0.00;0.00;;;;;21.74;100.00;100980.69;5075750;27;46464;-72
2023/09/01 00:22:05;;;;;;;;;1.00;1.00;;;;;21.77;100.00;100987.75;5075134;28;45263;-72
2023/09/01 00:24:33;;;;;;;;;1.67;1.67;;;;;21.74;100.00;100988.75;5066819;28;45369;-72
2023/09/01 00:26:59;;;;;;;;;0.00;0.00;;;;;21.73;100.00;100984.25;5070473;28;45192;-72
2023/09/01 00:29:24;;;;;;;;;1.00;1.00;;;;;21.71;100.00;100984.31;5071088;28;45517;-73
2023/09/01 00:31:50;;;;;;;;;0.67;0.67;;;;;21.69;100.00;100977.25;5074803;28;63468;-73
2023/09/01 00:34:15;;;;;;;;;0.00;0.00;;;;;21.70;100.00;100979.88;5075656;27;45428;-72
2023/09/01 00:36:41;;;;;;;;;0.67;0.67;;;;;21.70;100.00;100979.00;5074715;28;63049;-73
2023/09/01 00:39:06;;;;;;;;;0.00;0.00;;;;;21.71;100.00;100976.25;5075194;28;64747;-73
2023/09/01 00:41:31;;;;;;;;;2.67;1.00;;;;;21.70;100.00;100979.88;5074870;27;60396;-72
2023/09/01 00:43:57;;;;;;;;;0.00;0.00;;;;;21.73;100.00;100978.00;5075165;27;45821;-73
2023/09/01 00:46:22;;;;;;;;;0.67;0.67;;;;;21.69;100.00;100982.63;5075794;28;45662;-72
2023/09/01 00:48:48;;;;;;;;;0.33;0.00;;;;;21.70;100.00;100984.38;5073741;27;70601;-72
2023/09/01 00:51:14;;;;;;;;;0.67;0.67;;;;;21.71;100.00;100984.31;5075826;28;45469;-73
2023/09/01 00:53:40;;;;;;;;;1.00;1.00;;;;;21.70;100.00;100976.31;5075347;28;45575;-72
2023/09/01 00:56:05;;;;;;;;;1.00;1.00;;;;;21.71;100.00;100986.13;5073654;28;45374;-72
2023/09/01 00:58:31;;;;;;;;;1.00;1.00;;;;;21.73;100.00;100983.38;5073297;28;66860;-72
2023/09/01 01:00:58;;;;;;;;;0.67;0.67;;;;;21.75;100.00;100986.94;5075952;28;64923;-73
2023/09/01 01:03:24;;;;;;;;;1.00;1.00;;;;;21.74;100.00;100983.34;5078805;28;45333;-73
2023/09/01 01:05:58;;;;;;;;;4.00;1.00;;;;;21.77;100.00;100985.06;5076124;27;45360;-73
2023/09/01 01:08:38;;;;;;;;;1.00;1.00;;;;;21.81;100.00;100990.28;5070974;28;45369;-72
2023/09/01 01:11:10;;;;;;;;;1.00;1.00;;;;;21.84;100.00;100983.91;5078379;27;45377;-72
2023/09/01 01:13:40;;;;;;;;;0.67;0.67;;;;;21.81;100.00;100984.03;5078822;28;45543;-72
2023/09/01 01:16:06;;;;;;;;;0.67;0.67;;;;;21.81;100.00;100984.03;5075646;28;45449;-72
2023/09/01 01:18:33;;;;;;;;;1.67;1.00;;;;;21.78;100.00;100979.63;5077482;28;46216;-72
2023/09/01 01:21:11;;;;;;;;;4.00;2.00;;;;;21.78;100.00;100976.94;5077562;28;69384;-72
2023/09/01 01:23:37;;;;;;;;;1.00;1.00;;;;;21.78;100.00;100974.25;5078839;27;45290;-73
2023/09/01 01:26:04;;;;;;;;;1.00;1.00;;;;;21.82;100.00;100969.66;5076934;28;45575;-72
2023/09/01 01:28:29;;;;;;;;;3.00;0.67;;;;;21.87;100.00;100965.88;5075971;27;46566;-72
2023/09/01 01:30:55;;;;;;;;;0.67;0.67;;;;;21.90;100.00;100959.53;5077409;28;64067;-72
2023/09/01 01:33:29;;;;;;;;;1.00;1.00;;;;;21.90;100.00;100957.72;5077016;28;52098;-72
2023/09/01 01:35:57;;;;;;;;;1.00;1.00;;;;;21.91;100.00;100963.97;5077686;28;45538;-72
2023/09/01 01:38:27;;;;;;;;;2.33;1.00;;;;;21.92;100.00;100963.03;5077575;28;45332;-72
2023/09/01 01:40:59;;;;;;;;;1.67;1.67;;;;;21.89;100.00;100960.44;5077276;28;45456;-72
2023/09/01 01:43:26;;;;;;;;;1.00;1.00;;;;;21.87;100.00;100956.94;5076578;28;45230;-72
2023/09/01 01:45:52;;;;;;;;;0.00;0.00;;;;;21.87;100.00;100957.81;5076082;28;61433;-72
2023/09/01 01:48:17;;;;;;;;;0.67;0.67;;;;;21.88;100.00;100959.56;5073861;28;71546;-73
2023/09/01 01:50:43;;;;;;;;;0.67;0.67;;;;;21.89;100.00;100955.06;5075969;28;45444;-72
2023/09/01 01:53:08;;;;;;;;;1.00;1.00;;;;;21.89;100.00;100955.06;5077496;28;66105;-72
2023/09/01 01:55:34;;;;;;;;;2.67;1.00;;;;;21.91;100.00;100956.78;5077865;28;45506;-72
2023/09/01 01:57:59;;;;;;;;;1.67;1.00;;;;;21.91;100.00;100955.91;5078084;28;45274;-72
2023/09/01 02:00:26;;;;;;;;;0.67;0.67;;;;;21.93;100.00;100951.34;5077721;28;45525;-72
2023/09/01 02:02:52;;;;;;;;;1.67;1.00;;;;;21.95;100.00;100949.50;5078014;27;45595;-73
2023/09/01 02:05:17;;;;;;;;;1.00;1.00;;;;;21.93;100.00;100954.03;5076849;28;64450;-72
2023/09/01 02:07:43;;;;;;;;;0.67;0.67;;;;;21.91;100.00;100956.78;5077767;27;47261;-73
2023/09/01 02:10:08;;;;;;;;;3.00;1.00;;;;;21.89;100.00;100958.66;5076365;28;54867;-72
2023/09/01 02:12:34;;;;;;;;;1.67;0.67;;;;;21.90;100.00;100946.09;5077870;27;45508;-72
2023/09/01 02:14:59;;;;;;;;;3.00;1.00;;;;;21.87;100.00;100952.44;5076989;27;61935;-72
2023/09/01 02:17:25;;;;;;;;;1.00;1.00;;;;;21.84;100.00;100957.94;5077010;27;46356;-73
2023/09/01 02:19:50;;;;;;;;;0.33;0.33;;;;;21.83;100.00;100957.97;5077734;27;45287;-72
2023/09/01 02:22:15;;;;;;;;;1.00;1.00;;;;;21.84;100.00;100952.56;5076956;27;61551;-72
2023/09/01 02:24:41;;;;;;;;;1.00;1.00;;;;;21.80;100.00;100942.84;5076927;28;61273;-73
2023/09/01 02:27:06;;;;;;;;;3.33;1.00;;;;;21.79;100.00;100954.53;5073524;27;67913;-73
2023/09/01 02:29:31;;;;;;;;;1.00;1.00;;;;;21.80;100.00;100950.03;5076380;27;59935;-72
2023/09/01 02:31:57;;;;;;;;;0.67;0.67;;;;;21.80;100.00;100948.22;5076774;27;63045;-73
2023/09/01 02:34:22;;;;;;;;;1.67;0.67;;;;;21.81;100.00;100939.22;5076289;28;45649;-72
2023/09/01 02:36:47;;;;;;;;;2.33;1.00;;;;;21.80;100.00;100937.47;5075852;27;68463;-73
2023/09/01 02:39:13;;;;;;;;;3.00;1.00;;;;;21.81;100.00;100943.72;5076460;27;65815;-73
2023/09/01 02:41:38;;;;;;;;;1.00;1.00;;;;;21.77;100.00;100942.03;5077686;27;45287;-72
2023/09/01 02:44:04;;;;;;;;;0.67;0.67;;;;;21.77;100.00;100944.72;5076262;27;64583;-72
2023/09/01 02:46:30;;;;;;;;;0.00;0.00;;;;;21.74;100.00;100937.66;5075792;28;47107;-73
2023/09/01 02:48:55;;;;;;;;;0.00;0.00;;;;;21.75;100.00;100941.22;5075526;27;45314;-72
2023/09/01 02:51:20;;;;;;;;;2.67;0.67;;;;;21.71;100.00;100946.69;5077021;28;52690;-74
2023/09/01 02:53:46;;;;;;;;;0.67;0.00;;;;;21.69;100.00;100936.94;5076416;28;54808;-72
2023/09/01 02:56:11;;;;;;;;;1.67;0.67;;;;;21.65;100.00;100951.41;5076145;27;45846;-72
2023/09/01 02:58:37;;;;;;;;;1.67;0.00;;;;;21.64;100.00;100947.84;5075991;27;67800;-72
2023/09/01 03:01:07;;;;;;;;;3.67;0.67;;;;;21.60;100.00;100945.28;5075517;28;45477;-72
2023/09/01 03:03:36;;;;;;;;;0.67;0.67;;;;;21.60;100.00;100948.00;5076497;28;45568;-73
2023/09/01 03:06:05;;;;;;;;;0.00;0.00;;;;;21.58;100.00;100949.84;5073897;28;47654;-73
2023/09/01 03:08:31;;;;;;;;;1.67;0.00;;;;;21.64;100.00;100953.22;5076597;27;45414;-72
2023/09/01 03:10:56;;;;;;;;;1.00;0.67;;;;;21.60;100.00;100958.72;5076772;28;46915;-72
2023/09/01 03:13:21;;;;;;;;;0.00;0.00;;;;;21.59;100.00;100948.91;5076546;27;61120;-72
2023/09/01 03:15:47;;;;;;;;;0.33;0.33;;;;;21.60;100.00;100951.53;5074901;27;68916;-73
2023/09/01 03:18:12;;;;;;;;;2.00;0.67;;;;;21.59;100.00;100946.22;5075588;27;70197;-74
2023/09/01 03:20:38;;;;;;;;;0.00;0.00;;;;;21.58;100.00;100941.78;5076327;27;45406;-73
2023/09/01 03:23:04;;;;;;;;;3.67;0.67;;;;;21.55;100.00;100944.56;5075249;28;45272;-72
2023/09/01 03:25:29;;;;;;;;;1.00;1.00;;;;;21.56;100.00;100947.19;5075797;27;47362;-72
2023/09/01 03:27:55;;;;;;;;;0.00;0.00;;;;;21.55;100.00;100944.56;5075582;28;45506;-72
2023/09/01 03:30:20;;;;;;;;;2.00;0.67;;;;;21.53;100.00;100935.69;5075707;27;63037;-72
2023/09/01 03:32:46;;;;;;;;;0.67;0.67;;;;;21.52;100.00;100936.59;5075491;27;45452;-72
2023/09/01 03:35:11;;;;;;;;;0.00;0.00;;;;;21.52;100.00;100944.66;5075085;28;68950;-73
2023/09/01 03:37:36;;;;;;;;;1.33;0.67;;;;;21.53;100.00;100947.31;5075550;27;68904;-71
2023/09/01 03:40:08;;;;;;;;;2.00;0.00;;;;;21.54;100.00;100941.00;5076198;27;45377;-73
2023/09/01 03:42:34;;;;;;;;;3.00;0.00;;;;;21.57;100.00;100942.69;5075769;27;45359;-72
2023/09/01 03:44:59;;;;;;;;;1.00;1.00;;;;;21.57;100.00;100942.69;5075993;28;47360;-72
2023/09/01 03:47:25;;;;;;;;;2.67;1.00;;;;;21.57;100.00;100937.31;5074967;27;66092;-72
2023/09/01 03:49:50;;;;;;;;;2.00;0.67;;;;;21.53;100.00;100935.69;5073102;27;65016;-73
2023/09/01 03:52:15;;;;;;;;;1.00;1.00;;;;;21.53;100.00;100939.25;5075858;28;63324;-72
2023/09/01 03:54:41;;;;;;;;;1.00;1.00;;;;;21.53;100.00;100939.25;5074770;27;70929;-73
2023/09/01 03:57:08;;;;;;;;;2.00;1.00;;;;;21.52;100.00;100931.22;5075361;27;54630;-72
2023/09/01 03:59:33;;;;;;;;;0.67;0.67;;;;;21.51;100.00;100924.09;5075665;27;45285;-73
2023/09/01 04:01:58;;;;;;;;;2.00;1.00;;;;;21.47;100.00;100933.22;5075146;27;45798;-73
2023/09/01 04:04:24;;;;;;;;;0.33;0.33;;;;;21.46;100.00;100924.25;5075100;27;64678;-73
2023/09/01 04:06:50;;;;;;;;;1.67;0.67;;;;;21.43;100.00;100924.34;5075057;28;45397;-72
2023/09/01 04:09:15;;;;;;;;;0.33;0.33;;;;;21.41;100.00;100924.41;5075618;28;45419;-72
2023/09/01 04:11:40;;;;;;;;;0.67;0.67;;;;;21.41;100.00;100924.41;5075550;27;47395;-72
2023/09/01 04:14:08;;;;;;;;;1.67;0.33;;;;;21.40;100.00;100924.44;5075838;27;46494;-73
2023/09/01 04:16:34;;;;;;;;;0.67;0.67;;;;;21.39;100.00;100923.56;5075479;27;45307;-72
2023/09/01 04:18:59;;;;;;;;;0.33;0.33;;;;;21.39;100.00;100920.88;5075981;27;45803;-72
2023/09/01 04:21:24;;;;;;;;;0.33;0.33;;;;;21.40;100.00;100927.13;5073503;27;56617;-73
2023/09/01 04:23:50;;;;;;;;;0.33;0.33;;;;;21.35;100.00;100921.91;5072902;27;57692;-73
2023/09/01 04:26:15;;;;;;;;;3.67;0.67;;;;;21.37;100.00;100928.13;5073460;28;66312;-72
2023/09/01 04:28:41;;;;;;;;;0.67;0.67;;;;;21.38;100.00;100915.56;5070942;28;45864;-72
2023/09/01 04:31:24;;;;;;;;;1.00;1.00;;;;;21.36;100.00;100910.25;5076229;28;45471;-73
2023/09/01 04:33:50;;;;;;;;;0.33;0.33;;;;;21.38;100.00;100921.81;5071759;28;46766;-72
2023/09/01 04:36:15;;;;;;;;;1.67;0.33;;;;;21.34;100.00;100930.03;5078324;28;65106;-72
2023/09/01 04:38:41;;;;;;;;;0.67;0.67;;;;;21.34;100.00;100930.91;5078766;27;45710;-73
2023/09/01 04:41:06;;;;;;;;;0.33;0.33;;;;;21.34;100.00;100940.75;5079252;27;45630;-72
2023/09/01 04:43:32;;;;;;;;;1.33;1.33;;;;;21.32;100.00;100930.06;5078333;28;45829;-72
2023/09/01 04:45:58;;;;;;;;;3.67;1.67;;;;;21.34;100.00;100938.94;5079470;28;45353;-73
2023/09/01 04:48:24;;;;;;;;;0.00;0.00;;;;;21.36;100.00;100934.44;5078880;27;45516;-73
2023/09/01 04:50:50;;;;;;;;;1.67;1.67;;;;;21.33;100.00;100929.13;5078770;28;45559;-72
2023/09/01 04:53:15;;;;;;;;;2.33;2.33;;;;;21.34;100.00;100938.94;5075840;27;70289;-72
2023/09/01 04:55:41;;;;;;;;;0.33;0.33;;;;;21.34;100.00;100933.56;5077723;27;66020;-72
2023/09/01 04:58:07;;;;;;;;;2.67;0.67;;;;;21.34;100.00;100928.22;5078304;28;45517;-73
2023/09/01 05:00:32;;;;;;;;;1.67;1.67;;;;;21.36;100.00;100937.13;5078501;28;45523;-72
2023/09/01 05:02:57;;;;;;;;;0.33;0.33;;;;;21.43;100.00;100933.28;5077407;27;67281;-73
2023/09/01 05:05:23;;;;;;;;;0.33;0.33;;;;;21.42;100.00;100936.91;5073085;28;46259;-73
2023/09/01 05:07:49;;;;;;;;;0.00;0.00;;;;;21.41;100.00;100937.84;5078636;27;47792;-72
2023/09/01 05:10:14;;;;;;;;;1.33;1.33;;;;;21.44;100.00;100928.78;5078729;27;45248;-73
2023/09/01 05:12:39;;;;;;;;;0.67;0.67;;;;;21.49;100.00;100931.34;5076115;28;72413;-73
2023/09/01 05:15:05;;;;;;;;;1.00;1.00;;;;;21.49;100.00;100940.28;5078082;27;67136;-72
2023/09/01 05:17:31;;;;;;;;;1.33;1.33;;;;;21.53;100.00;100943.75;5078077;27;45508;-72
2023/09/01 05:19:57;;;;;;;;;0.67;0.67;;;;;21.56;100.00;100932.88;5078872;27;45491;-72
2023/09/01 05:22:23;;;;;;;;;0.00;0.00;;;;;21.60;100.00;100937.25;5077228;28;47723;-73
2023/09/01 05:24:49;;;;;;;;;1.00;1.00;;;;;21.65;100.00;100927.22;5078227;28;45746;-73
2023/09/01 05:27:14;;;;;;;;;1.00;0.67;;;;;21.63;100.00;100934.47;5077827;28;45279;-72
2023/09/01 05:29:40;;;;;;;;;2.00;2.00;;;;;21.62;100.00;100930.00;5078017;27;45461;-73
2023/09/01 05:32:05;;;;;;;;;0.67;0.67;;;;;21.67;100.00;100928.03;5077357;27;70725;-72
2023/09/01 05:34:30;;;;;;;;;3.00;2.00;;;;;21.72;100.00;100928.75;5076100;27;64178;-73
2023/09/01 05:36:57;;;;;;;;;1.00;1.00;;;;;21.72;100.00;100936.81;5078250;27;45364;-72
2023/09/01 05:39:23;;;;;;;;;1.00;1.00;;;;;21.75;100.00;100933.16;5078401;27;45471;-72
2023/09/01 05:41:48;;;;;;;;;1.00;1.00;;;;;21.75;100.00;100942.09;5077940;28;46255;-73
2023/09/01 05:44:13;;;;;;;;;0.67;0.67;;;;;21.74;100.00;100937.66;5077564;27;45431;-72
2023/09/01 05:46:39;;;;;;;;;1.33;1.33;;;;;21.78;100.00;100946.50;5075931;28;60961;-72
2023/09/01 05:49:04;;;;;;;;;3.00;0.67;;;;;21.83;100.00;100947.22;5074477;27;49593;-72
2023/09/01 05:51:29;;;;;;;;;0.67;0.67;;;;;21.86;100.00;100941.75;5076604;27;71006;-73
2023/09/01 05:53:54;;;;;;;;;0.67;0.67;;;;;21.89;100.00;100952.38;5077004;27;66824;-73
2023/09/01 05:56:20;;;;;;;;;0.00;0.00;;;;;21.87;100.00;100954.25;5073505;28;61808;-72
2023/09/01 05:58:46;;;;;;;;;0.00;0.00;;;;;21.85;100.00;100964.19;5076345;27;63646;-72
2023/09/01 06:01:12;;;;;;;;;0.67;0.67;;;;;21.85;100.00;100959.69;5077897;27;45820;-72
2023/09/01 06:03:37;;;;;;;;;1.00;1.00;;;;;21.86;100.00;100968.63;5076498;28;67152;-72
2023/09/01 06:06:02;;;;;;;;;3.67;0.67;;;;;21.86;100.00;100968.63;5077153;27;45186;-73
2023/09/01 06:08:28;;;;;;;;;2.00;0.00;;;;;21.87;100.00;100978.44;5077769;27;45263;-72
2023/09/01 06:11:05;;;;;;;;;0.33;0.33;;;;;21.82;100.00;100978.59;5077257;28;46422;-72
2023/09/01 06:13:31;;;;;;;;;0.67;0.67;;;;;21.87;100.00;100979.31;5076264;27;45209;-72
2023/09/01 06:15:56;;;;;;;;;0.67;0.67;;;;;21.86;100.00;100984.75;5070571;27;45395;-72
2023/09/01 06:18:21;;;;;;;;;1.00;1.00;;;;;21.85;100.00;100991.06;5076173;27;52346;-72
2023/09/01 06:20:47;;;;;;;;;1.00;1.00;;;;;21.88;100.00;100990.94;5075326;28;71135;-72
2023/09/01 06:23:12;;;;;;;;;0.00;0.00;;;;;21.91;100.00;100986.38;5076060;27;70107;-72
2023/09/01 06:25:37;;;;;;;;;0.67;0.67;;;;;21.91;100.00;100990.88;5069548;28;63405;-72
2023/09/01 06:28:03;;;;;;;;;0.67;0.67;;;;;21.92;100.00;100992.63;5069019;28;45425;-72
2023/09/01 06:30:29;;;;;;;;;0.67;0.67;;;;;21.94;100.00;100985.38;5069803;27;46309;-72
2023/09/01 06:32:54;;;;;;;;;1.67;0.00;;;;;22.06;100.00;100984.09;5076169;28;49914;-71
2023/09/01 06:35:19;;;;;;;;;0.00;0.00;;;;;22.09;100.00;100984.84;5071812;28;55348;-71
2023/09/01 06:37:45;;;;;;;;;0.00;0.00;;;;;22.08;100.00;100983.09;5076200;28;46866;-72
2023/09/01 06:40:10;;;;;;;;;0.67;0.67;;;;;22.04;100.00;100988.63;5075286;28;67589;-71
2023/09/01 06:42:35;;;;;;;;;1.00;1.00;;;;;22.05;100.00;100993.06;5073808;27;45513;-71
2023/09/01 06:45:01;;;;;;;;;2.67;0.00;;;;;22.09;100.00;100987.53;5072773;27;45521;-71
2023/09/01 06:47:26;;;;;;;;;0.67;0.67;;;;;22.09;100.00;100981.28;5073158;27;59254;-72
2023/09/01 06:49:52;;;;;;;;;3.00;1.00;;;;;22.12;100.00;100994.66;5075931;28;68788;-72
2023/09/01 06:52:18;;;;;;;;;0.00;0.00;;;;;22.15;100.00;100986.47;5075759;27;51756;-72
2023/09/01 06:54:43;;;;;;;;;1.00;1.00;;;;;22.04;100.00;100994.00;5076027;27;45642;-71
2023/09/01 06:57:08;;;;;;;;;0.33;0.33;;;;;22.07;100.00;100992.09;5070830;28;57264;-72
2023/09/01 06:59:33;;;;;;;;;0.67;0.67;;;;;22.10;100.00;100994.69;5075594;27;67928;-71
2023/09/01 07:01:59;;;;;;;;;0.33;0.00;;;;;22.19;100.00;100998.91;5071676;27;66843;-72
2023/09/01 07:04:25;;;;;;;;;3.00;1.00;;;;;22.28;100.00;101000.41;5074462;27;45398;-73
2023/09/01 07:06:50;;;;;;;;;2.00;0.33;;;;;22.30;100.00;100995.84;5066791;27;45562;-72
2023/09/01 07:09:16;;;;;;;;;0.00;0.00;;;;;22.26;100.00;101000.44;5074900;27;46637;-72
2023/09/01 07:11:41;;;;;;;;;0.00;0.00;;;;;22.29;100.00;101005.72;5075691;27;45546;-72
2023/09/01 07:14:06;;;;;;;;;0.00;0.00;;;;;22.31;100.00;100997.59;5075628;27;64252;-72
2023/09/01 07:16:32;;;;;;;;;0.00;0.00;;;;;22.32;100.00;101004.72;5076075;28;55024;-72
2023/09/01 07:18:57;;;;;;;;;0.00;0.00;;;;;22.28;100.00;101003.09;5075070;27;46903;-72
2023/09/01 07:21:22;;;;;;;;;0.00;0.00;;;;;22.27;100.00;101010.28;5074636;28;67302;-72
2023/09/01 07:23:49;;;;;;;;;0.00;0.00;;;;;22.31;100.00;101022.69;5075626;28;45473;-72
2023/09/01 07:26:16;;;;;;;;;0.00;0.00;;;;;22.31;100.00;101017.28;5075527;28;45481;-72
2023/09/01 07:28:41;;;;;;;;;2.00;0.00;;;;;22.28;100.00;101017.41;5073747;27;45695;-73
2023/09/01 07:31:13;;;;;;;;;2.00;1.00;;;;;22.24;100.00;101023.84;5074139;27;67288;-72
2023/09/01 07:33:42;;;;;;;;;0.00;0.00;;;;;22.21;100.00;101019.44;5072997;28;45507;-72
2023/09/01 07:36:10;;;;;;;;;1.00;1.00;;;;;22.19;100.00;101026.69;5073976;28;46957;-72
2023/09/01 07:38:37;;;;;;;;;0.00;0.00;;;;;22.17;100.00;101038.44;5061956;28;45845;-72
2023/09/01 07:41:03;;;;;;;;;2.00;0.33;;;;;22.17;100.00;101030.38;5074865;27;45473;-72
2023/09/01 07:43:28;;;;;;;;;2.00;0.00;;;;;22.18;100.00;101030.31;5076161;28;45448;-72
2023/09/01 07:45:54;;;;;;;;;1.33;1.00;;;;;22.18;100.00;101026.72;5075399;28;45525;-72
2023/09/01 07:48:19;;;;;;;;;0.67;0.67;;;;;22.19;100.00;101025.78;5067956;22;70736;-71
2023/09/01 07:50:46;;;;;;;;;0.00;0.00;;;;;22.16;100.00;101010.66;5073356;27;67664;-72
2023/09/01 07:53:11;;;;;;;;;0.67;0.67;;;;;22.16;100.00;101018.72;5068142;28;45323;-72
2023/09/01 07:55:37;;;;;;;;;0.00;0.00;;;;;22.20;100.00;101031.13;5065730;28;45592;-71
2023/09/01 07:58:02;;;;;;;;;2.00;0.00;;;;;22.28;100.00;101028.19;5069610;28;46956;-72
2023/09/01 08:00:28;;;;;;;;;0.00;0.00;;;;;22.32;100.00;101023.56;5066612;27;45255;-71
2023/09/01 08:02:53;;;;;;;;;0.00;0.00;;;;;22.37;100.00;101019.81;5070304;28;45448;-71
2023/09/01 08:05:18;;;;;;;;;1.00;1.00;;;;;22.43;100.00;101008.81;5072098;27;45389;-70
2023/09/01 08:07:46;;;;;;;;;0.00;0.00;;;;;22.51;100.00;101023.81;5070662;27;69910;-71
2023/09/01 08:10:11;;;;;;;;;0.00;0.00;;;;;22.60;100.00;101031.56;5068415;28;45464;-71
2023/09/01 08:12:37;;;;;;;;;0.00;0.00;;;;;22.65;100.00;101027.78;5073155;28;45345;-71
2023/09/01 08:15:02;;;;;;;;;0.00;0.00;;;;;22.73;100.00;101020.28;5068843;28;45698;-71
2023/09/01 08:17:28;;;;;;;;;0.00;0.00;;;;;22.86;100.00;101018.03;5068506;28;45649;-71
2023/09/01 08:19:53;;;;;;;;;0.00;0.00;;;;;22.90;100.00;101019.69;5068156;27;64882;-70
2023/09/01 08:22:18;;;;;;;;;2.00;1.00;;;;;22.93;100.00;101018.72;5067201;27;56387;-72
2023/09/01 08:24:44;;;;;;;;;0.67;0.67;;;;;23.06;100.00;101021.81;5067589;27;45409;-71
2023/09/01 08:27:10;;;;;;;;;0.00;0.00;;;;;23.08;100.00;101011.88;5066897;28;45851;-70
2023/09/01 08:29:35;;;;;;;;;1.00;1.00;;;;;23.07;100.00;101016.38;5070488;28;57880;-70
2023/09/01 08:32:00;;;;;;;;;0.33;0.33;;;;;23.10;100.00;101024.34;5069335;27;45509;-72
2023/09/01 08:34:27;;;;;;;;;0.00;0.00;;;;;23.15;100.00;101019.66;5073001;27;47121;-72
2023/09/01 08:36:52;;;;;;;;;0.33;0.33;;;;;23.25;100.00;101021.06;5068502;27;46279;-72
2023/09/01 08:39:17;;;;;;;;;0.00;0.00;;;;;23.25;100.00;101015.66;5069412;27;64238;-72
2023/09/01 08:41:44;;;;;;;;;0.00;0.00;;;;;23.26;100.00;101009.34;5074577;27;51989;-72
2023/09/01 08:44:11;;;;;;;;;1.33;0.00;;;;;23.32;100.00;101013.59;5071913;28;45300;-71
2023/09/01 08:46:37;;;;;;;;;1.33;0.33;;;;;23.32;100.00;101019.00;5061037;28;47434;-71
2023/09/01 08:49:03;;;;;;;;;1.00;1.00;;;;;23.43;100.00;101022.16;5070302;27;68022;-71
2023/09/01 08:51:29;;;;;;;;;0.33;0.33;;;;;23.58;100.00;101014.41;5067431;28;45290;-71
2023/09/01 08:53:55;;;;;;;;;2.00;0.00;;;;;23.77;100.00;101028.94;5068544;28;45273;-72
2023/09/01 08:56:20;;;;;;;;;1.00;1.00;;;;;23.85;100.00;101020.53;5063610;28;69935;-71
2023/09/01 08:58:46;;;;;;;;;2.00;0.67;;;;;23.91;100.00;101018.44;5074900;27;45495;-71
2023/09/01 09:01:13;;;;;;;;;0.00;0.00;;;;;23.94;100.00;101012.06;5074203;28;45661;-71
2023/09/01 09:03:39;;;;;;;;;0.00;0.00;;;;;23.90;100.00;101014.00;5076818;28;45465;-71
2023/09/01 09:06:05;;;;;;;;;0.00;0.00;;;;;23.87;100.00;101010.56;5074550;27;45722;-71
2023/09/01 09:08:30;;;;;;;;;0.00;0.00;;;;;23.88;100.00;101013.19;5069504;27;45554;-71
2023/09/01 09:10:55;;;;;;;;;1.00;1.00;;;;;23.93;100.00;101019.28;5067048;28;45513;-70
2023/09/01 09:13:29;;;;;;;;;0.00;0.00;;;;;24.02;100.00;101020.69;5071471;28;59722;-71
2023/09/01 09:16:07;;;;;;;;;1.00;1.00;;;;;24.12;100.00;101023.91;5067160;28;47554;-71
2023/09/01 09:18:33;;;;;;;;;0.00;0.00;;;;;24.10;100.00;101021.28;5075312;27;45283;-71
2023/09/01 09:20:58;;;;;;;;;1.00;1.00;;;;;24.20;100.00;101016.38;5071947;27;45385;-71
2023/09/01 09:23:44;;;;;;;;;2.00;0.00;;;;;24.34;100.00;101019.34;5064321;28;60345;-70
2023/09/01 09:26:10;;;;;;;;;2.00;1.00;;;;;24.38;100.00;101021.00;5067512;28;47387;-71
2023/09/01 09:28:35;;;;;;;;;1.00;1.00;;;;;24.47;100.00;101006.22;5066326;27;45485;-71
2023/09/01 09:31:02;;;;;;;;;1.00;1.00;;;;;24.46;100.00;101008.06;5076175;28;45562;-71
2023/09/01 09:33:32;;;;;;;;;1.00;1.00;;;;;24.45;100.00;101002.69;5065899;27;47188;-72
2023/09/01 09:35:57;;;;;;;;;2.67;1.00;;;;;24.44;100.00;101015.31;5064028;28;46636;-70
2023/09/01 09:38:23;;;;;;;;;2.00;0.33;;;;;24.37;100.00;101003.06;5073190;28;45442;-71
2023/09/01 09:40:59;;;;;;;;;2.00;0.00;;;;;24.32;100.00;101010.44;5062681;27;45541;-72
2023/09/01 09:43:25;;;;;;;;;1.67;1.67;;;;;24.31;100.00;101014.97;5069204;27;45365;-71
2023/09/01 09:45:54;;;;;;;;;0.00;0.00;;;;;24.27;100.00;101017.84;5068272;28;47486;-71
2023/09/01 09:48:20;;;;;;;;;1.00;1.00;;;;;24.33;100.00;101022.97;5062938;27;54328;-70
2023/09/01 09:50:47;;;;;;;;;1.00;1.00;;;;;24.52;100.00;101034.78;5073903;28;45385;-71
2023/09/01 09:53:16;;;;;;;;;1.00;1.00;;;;;24.72;100.00;101024.94;5064737;28;45377;-72
2023/09/01 09:55:44;;;;;;;;;2.67;1.67;;;;;24.93;100.00;101020.34;5066172;27;46526;-72
2023/09/01 09:58:11;;;;;;;;;1.00;1.00;;;;;25.21;100.00;101028.13;5077011;28;45357;-71
2023/09/01 10:00:46;;;;;;;;;0.00;0.00;;;;;25.30;100.00;101011.44;5077844;27;45517;-70
2023/09/01 10:03:11;;;;;;;;;1.00;1.00;;;;;25.30;100.00;101019.56;5069812;28;45611;-70
2023/09/01 10:05:38;;;;;;;;;3.33;0.67;;;;;25.30;100.00;101012.34;5064671;28;47217;-71
2023/09/01 10:08:07;;;;;;;;;1.33;1.00;;;;;25.24;100.00;101009.91;5061685;27;71195;-72
2023/09/01 10:10:34;;;;;;;;;0.33;0.33;;;;;25.22;100.00;101013.66;5061797;28;45379;-71
2023/09/01 10:13:02;;;;;;;;;3.00;1.00;;;;;25.22;100.00;101009.13;5066811;27;45570;-71
2023/09/01 10:15:28;;;;;;;;;1.00;1.00;;;;;25.33;100.00;101011.31;5076849;27;47431;-71
2023/09/01 10:17:54;;;;;;;;;1.00;1.00;;;;;25.37;100.00;101004.81;5061864;28;45532;-70
2023/09/01 10:20:20;;;;;;;;;3.67;1.00;;;;;25.33;100.00;101008.63;5058823;28;65932;-71
2023/09/01 10:22:45;;;;;;;;;0.00;0.00;;;;;25.38;100.00;101003.00;5072957;28;45533;-70
2023/09/01 10:25:19;;;;;;;;;2.00;0.00;;;;;25.41;100.00;100997.41;5075999;27;45556;-70
2023/09/01 10:28:18;;;;;;;;;0.00;0.00;;;;;25.42;100.00;101002.78;5070080;28;45564;-71
2023/09/01 10:30:45;;;;;;;;;0.33;0.33;;;;;25.45;100.00;101002.59;5075074;28;45455;-72
2023/09/01 10:33:24;;;;;;;;;0.00;0.00;;;;;25.44;100.00;100998.16;5072394;27;45450;-72
2023/09/01 10:35:51;;;;;;;;;0.00;0.00;;;;;25.38;100.00;100997.59;5064405;28;45750;-72
2023/09/01 10:38:22;;;;;;;;;0.67;0.67;;;;;25.38;100.00;101006.56;5062204;28;45446;-72
2023/09/01 10:40:52;;;;;;;;;1.00;1.00;;;;;25.38;100.00;101014.69;5064030;27;45478;-72
2023/09/01 10:43:39;;;;;;;;;0.33;0.33;;;;;25.44;100.00;101008.97;5064947;28;46301;-71
2023/09/01 10:46:16;;;;;;;;;2.00;1.00;;;;;25.54;100.00;101012.13;5073117;27;45953;-73
2023/09/01 10:48:57;;;;;;;;;1.00;1.00;;;;;25.67;100.00;101004.28;5073304;27;45524;-72
2023/09/01 10:51:29;;;;;;;;;0.33;0.33;;;;;25.85;100.00;101009.69;5070028;28;45287;-72
2023/09/01 10:53:56;;;;;;;;;2.00;1.33;;;;;25.97;100.00;101005.50;5071733;28;45593;-71
2023/09/01 10:56:22;;;;;;;;;1.00;1.00;;;;;26.13;100.00;101013.72;5068975;27;45601;-72
2023/09/01 10:58:49;;;;;;;;;2.00;1.00;;;;;26.22;100.00;101009.69;5068817;28;45477;-71
2023/09/01 11:01:37;;;;;;;;;0.33;0.33;;;;;26.22;100.00;101004.25;5068433;27;45454;-70
2023/09/01 11:04:14;;;;;;;;;0.00;0.00;;;;;26.22;100.00;101006.97;5070512;28;45456;-71
2023/09/01 11:06:58;;;;;;;;;1.00;1.00;;;;;26.21;100.00;101002.53;5067663;28;46092;-71
2023/09/01 11:09:35;;;;;;;;;1.00;1.00;;;;;26.34;100.00;101001.78;5069322;28;45298;-72
2023/09/01 11:12:02;;;;;;;;;1.67;1.00;;;;;26.54;100.00;100986.38;5063025;28;45571;-71
2023/09/01 11:14:27;;;;;;;;;0.00;0.00;;;;;26.79;100.00;100996.75;5070269;28;45301;-72